Time;durP1;ratioP1;P1;durP2;ratioP2;P2;SDS_P1;SDS_P2;PMS_P1;PMS_P2;Temp;Humidity;BMP_temperature;BMP_pressure;BME280_temperature;BME280_humidity;BME280_pressure;Samples;Min_cycle;Max_cycle;Signal;HPM_P1;HPM_P2
2022/04/01 00:01:22;;;;;;;11.55;10.35;;;;;;;0.10;100.00;100204.00;5371649;27;20019;-76
2022/04/01 00:03:53;;;;;;;11.95;10.68;;;;;;;-0.02;100.00;100195.09;5390884;27;20022;-76
2022/04/01 00:06:25;;;;;;;11.63;9.80;;;;;;;0.03;100.00;100207.09;5391190;27;20522;-76
2022/04/01 00:08:56;;;;;;;9.85;8.85;;;;;;;0.04;100.00;100207.00;5389696;27;20060;-76
2022/04/01 00:11:27;;;;;;;10.30;9.30;;;;;;;-0.03;100.00;100197.81;5390857;27;20451;-76
2022/04/01 00:13:59;;;;;;;11.00;9.77;;;;;;;0.01;100.00;100212.44;5389486;27;20055;-76
2022/04/01 00:16:31;;;;;;;9.55;8.63;;;;;;;-0.03;100.00;100217.00;5390558;27;20027;-76
2022/04/01 00:19:03;;;;;;;9.48;8.50;;;;;;;-0.01;100.00;100223.00;5371104;27;20029;-76
2022/04/01 00:21:35;;;;;;;11.05;9.10;;;;;;;-0.01;100.00;100225.63;5389446;27;20166;-75
2022/04/01 00:24:06;;;;;;;9.05;8.18;;;;;;;-0.04;100.00;100222.34;5390467;27;20115;-76
2022/04/01 00:26:38;;;;;;;9.43;8.48;;;;;;;-0.08;100.00;100221.66;5390106;27;20056;-76
2022/04/01 00:29:15;;;;;;;9.18;8.32;;;;;;;-0.13;100.00;100223.72;5389565;27;20031;-76
2022/04/01 00:31:49;;;;;;;8.93;8.02;;;;;;;-0.11;100.00;100226.25;5387887;27;20041;-76
2022/04/01 00:34:20;;;;;;;8.93;8.02;;;;;;;-0.19;100.00;100226.72;5390099;27;20018;-76
2022/04/01 00:36:52;;;;;;;8.80;7.65;;;;;;;-0.19;100.00;100226.72;5390783;27;20488;-76
2022/04/01 00:39:25;;;;;;;9.63;7.57;;;;;;;-0.22;100.00;100229.50;5390275;27;20023;-76
2022/04/01 00:41:58;;;;;;;8.82;7.93;;;;;;;-0.21;100.00;100234.66;5387393;27;20034;-76
2022/04/01 00:44:32;;;;;;;9.25;8.13;;;;;;;-0.25;100.00;100233.13;5389250;27;20459;-76
2022/04/01 00:47:14;;;;;;;8.75;7.15;;;;;;;-0.27;100.00;100239.41;5389307;27;20030;-76
2022/04/01 00:49:46;;;;;;;9.10;7.97;;;;;;;-0.31;100.00;100238.72;5371077;27;20444;-76
2022/04/01 00:52:21;;;;;;;8.68;7.78;;;;;;;-0.30;100.00;100242.19;5387857;27;20079;-76
2022/04/01 00:54:53;;;;;;;12.15;8.20;;;;;;;-0.36;100.00;100235.53;5389492;27;20023;-76
2022/04/01 00:57:25;;;;;;;8.60;7.70;;;;;;;-0.30;100.00;100248.28;5389661;27;20530;-76
2022/04/01 00:59:57;;;;;;;11.25;8.18;;;;;;;-0.26;100.00;100251.59;5389289;27;20030;-76
2022/04/01 01:02:28;;;;;;;9.93;7.65;;;;;;;-0.29;100.00;100249.13;5387835;27;20034;-76
2022/04/01 01:05:00;;;;;;;9.60;8.02;;;;;;;-0.31;100.00;100248.38;5389369;27;20061;-76
2022/04/01 01:07:32;;;;;;;10.57;8.15;;;;;;;-0.37;100.00;100249.56;5389817;27;20031;-76
2022/04/01 01:10:04;;;;;;;11.80;8.55;;;;;;;-0.35;100.00;100252.94;5388886;27;20022;-76
2022/04/01 01:12:36;;;;;;;9.30;7.57;;;;;;;-0.35;100.00;100247.72;5389193;27;20023;-76
2022/04/01 01:15:10;;;;;;;10.20;7.80;;;;;;;-0.30;100.00;100253.53;5369811;27;20113;-76
2022/04/01 01:17:42;;;;;;;9.55;7.97;;;;;;;-0.39;100.00;100241.81;5389041;27;20159;-76
2022/04/01 01:20:17;;;;;;;9.65;7.90;;;;;;;-0.35;100.00;100249.47;5385227;27;20022;-76
2022/04/01 01:22:49;;;;;;;10.80;7.25;;;;;;;-0.40;100.00;100255.81;5387337;27;20130;-76
2022/04/01 01:25:21;;;;;;;8.15;7.35;;;;;;;-0.40;100.00;100258.44;5386765;27;20061;-76
2022/04/01 01:27:52;;;;;;;9.13;7.45;;;;;;;-0.41;100.00;100256.75;5388095;27;20139;-76
2022/04/01 01:30:24;;;;;;;8.27;7.47;;;;;;;-0.39;100.00;100257.53;5388351;27;20015;-76
2022/04/01 01:32:55;;;;;;;8.13;7.03;;;;;;;-0.41;100.00;100255.91;5389207;27;20057;-76
2022/04/01 01:35:28;;;;;;;8.35;6.82;;;;;;;-0.39;100.00;100261.91;5389272;27;20106;-76
2022/04/01 01:38:01;;;;;;;10.02;8.48;;;;;;;-0.40;100.00;100258.44;5389098;27;20130;-76
2022/04/01 01:40:33;;;;;;;10.73;7.45;;;;;;;-0.39;100.00;100260.16;5389228;27;20414;-76
2022/04/01 01:43:04;;;;;;;8.73;7.68;;;;;;;-0.42;100.00;100252.44;5388111;27;20059;-76
2022/04/01 01:45:36;;;;;;;10.15;8.02;;;;;;;-0.41;100.00;100253.28;5389940;27;20070;-76
2022/04/01 01:48:07;;;;;;;10.13;7.95;;;;;;;-0.41;100.00;100259.38;5388888;27;20030;-76
2022/04/01 01:56:18;;;;;;;11.88;7.78;;;;;;;-0.45;100.00;100257.03;5388706;27;20042;-76
2022/04/01 01:58:50;;;;;;;9.40;8.38;;;;;;;-0.49;100.00;100264.22;5368956;27;20083;-76
2022/04/01 02:01:22;;;;;;;9.07;7.82;;;;;;;-0.47;100.00;100272.81;5368739;27;20483;-76
2022/04/01 02:03:53;;;;;;;10.35;8.55;;;;;;;-0.44;100.00;100284.91;5385038;27;20439;-76
2022/04/01 02:06:24;;;;;;;8.88;7.97;;;;;;;-0.46;100.00;100274.50;5388753;27;20030;-76
2022/04/01 02:08:56;;;;;;;9.07;8.07;;;;;;;-0.41;100.00;100266.38;5388319;27;20041;-76
2022/04/01 02:11:28;;;;;;;10.15;8.38;;;;;;;-0.41;100.00;100274.25;5388473;27;20034;-76
2022/04/01 02:13:59;;;;;;;9.65;7.88;;;;;;;-0.45;100.00;100270.97;5386542;27;20414;-76
2022/04/01 02:16:30;;;;;;;9.63;8.43;;;;;;;-0.42;100.00;100277.78;5388588;27;20069;-76
2022/04/01 02:19:01;;;;;;;9.88;8.88;;;;;;;-0.43;100.00;100274.34;5388484;27;20419;-76
2022/04/01 02:21:33;;;;;;;11.25;8.93;;;;;;;-0.47;100.00;100277.22;5387717;27;20411;-76
2022/04/01 02:24:10;;;;;;;10.68;8.35;;;;;;;-0.42;100.00;100297.00;5387622;27;20030;-75
2022/04/01 02:26:41;;;;;;;9.13;8.23;;;;;;;-0.39;100.00;100291.59;5387992;27;20060;-75
2022/04/01 02:29:13;;;;;;;9.60;8.60;;;;;;;-0.41;100.00;100289.97;5368558;27;21309;-75
2022/04/01 02:31:46;;;;;;;9.65;8.65;;;;;;;-0.39;100.00;100296.84;5385251;27;20027;-75
2022/04/01 02:34:19;;;;;;;10.05;9.05;;;;;;;-0.40;100.00;100291.69;5386541;27;20037;-75
2022/04/01 02:36:50;;;;;;;8.95;8.05;;;;;;;-0.37;100.00;100296.72;5385682;27;20022;-75
2022/04/01 02:39:21;;;;;;;9.40;8.50;;;;;;;-0.36;100.00;100305.44;5391189;27;20394;-75
2022/04/01 02:41:52;;;;;;;9.55;8.18;;;;;;;-0.38;100.00;100303.75;5389752;27;20451;-75
2022/04/01 02:44:24;;;;;;;10.90;8.63;;;;;;;-0.35;100.00;100310.59;5372223;27;20469;-75
2022/04/01 02:46:55;;;;;;;9.77;8.40;;;;;;;-0.39;100.00;100309.06;5392375;27;20513;-75
2022/04/01 02:49:26;;;;;;;9.18;8.20;;;;;;;-0.41;100.00;100310.94;5391438;27;20065;-75
2022/04/01 02:51:58;;;;;;;8.88;7.97;;;;;;;-0.42;100.00;100317.97;5391029;27;20110;-75
2022/04/01 02:54:31;;;;;;;9.25;8.30;;;;;;;-0.42;100.00;100317.09;5391806;27;20026;-75
2022/04/01 02:57:03;;;;;;;10.07;8.55;;;;;;;-0.45;100.00;100323.38;5390622;27;20376;-75
2022/04/01 02:59:34;;;;;;;9.18;8.20;;;;;;;-0.44;100.00;100322.44;5390381;27;20030;-75
2022/04/01 03:02:05;;;;;;;9.77;8.55;;;;;;;-0.47;100.00;100324.41;5391077;27;20584;-75
2022/04/01 03:04:37;;;;;;;10.30;8.73;;;;;;;-0.42;100.00;100327.56;5392026;27;20060;-75
2022/04/01 03:07:09;;;;;;;10.13;9.00;;;;;;;-0.44;100.00;100337.31;5391078;27;20478;-75
2022/04/01 03:09:40;;;;;;;11.48;9.75;;;;;;;-0.47;100.00;100334.88;5372628;27;20082;-75
2022/04/01 03:12:11;;;;;;;10.25;9.18;;;;;;;-0.45;100.00;100338.25;5390960;27;20374;-75
2022/04/01 03:14:42;;;;;;;10.65;9.55;;;;;;;-0.47;100.00;100337.50;5388433;27;20038;-75
2022/04/01 03:17:14;;;;;;;11.98;10.52;;;;;;;-0.43;100.00;100346.88;5390715;27;20101;-75
2022/04/01 03:19:45;;;;;;;13.02;11.10;;;;;;;-0.48;100.00;100335.78;5390691;27;20031;-75
2022/04/01 03:22:17;;;;;;;11.82;10.43;;;;;;;-0.48;100.00;100343.66;5371084;27;20043;-76
2022/04/01 03:24:48;;;;;;;12.02;10.82;;;;;;;-0.49;100.00;100344.56;5390575;27;20029;-76
2022/04/01 03:27:19;;;;;;;12.77;11.45;;;;;;;-0.50;100.00;100348.97;5389678;27;20026;-76
2022/04/01 03:29:50;;;;;;;13.07;11.20;;;;;;;-0.47;100.00;100359.28;5390690;27;20027;-76
2022/04/01 03:32:22;;;;;;;12.25;10.88;;;;;;;-0.50;100.00;100354.22;5386039;27;20075;-76
2022/04/01 03:34:53;;;;;;;13.38;11.98;;;;;;;-0.50;100.00;100363.84;5389652;27;20074;-76
2022/04/01 03:37:24;;;;;;;13.07;10.55;;;;;;;-0.53;100.00;100359.63;5387780;27;41463;-76
2022/04/01 03:39:56;;;;;;;12.88;11.43;;;;;;;-0.54;100.00;100360.56;5366597;27;20043;-75
2022/04/01 03:42:30;;;;;;;13.60;11.48;;;;;;;-0.50;100.00;100363.84;5390311;27;20022;-75
2022/04/01 03:45:06;;;;;;;12.77;11.43;;;;;;;-0.58;100.00;100369.50;5389744;27;20044;-75
2022/04/01 03:47:40;;;;;;;12.73;11.43;;;;;;;-0.52;100.00;100373.59;5390402;27;20015;-75
2022/04/01 03:50:12;;;;;;;12.00;10.73;;;;;;;-0.52;100.00;100368.34;5370932;27;20382;-75
2022/04/01 03:52:47;;;;;;;12.32;11.02;;;;;;;-0.49;100.00;100383.88;5390465;27;20027;-75
2022/04/01 03:55:22;;;;;;;13.45;11.48;;;;;;;-0.58;100.00;100365.13;5388236;27;39173;-75
2022/04/01 03:57:55;;;;;;;13.07;11.65;;;;;;;-0.56;100.00;100375.53;5370532;27;20038;-75
2022/04/01 04:00:27;;;;;;;13.63;11.57;;;;;;;-0.55;100.00;100371.94;5385920;27;20047;-75
2022/04/01 04:02:59;;;;;;;13.40;12.00;;;;;;;-0.55;100.00;100382.44;5386014;27;20097;-75
2022/04/01 04:05:32;;;;;;;12.38;10.38;;;;;;;-0.51;100.00;100390.97;5371681;27;20027;-76
2022/04/01 04:08:05;;;;;;;12.18;10.90;;;;;;;-0.54;100.00;100388.50;5386339;27;20037;-75
2022/04/01 04:10:37;;;;;;;12.25;10.95;;;;;;;-0.59;100.00;100392.25;5371311;27;20352;-75
2022/04/01 04:13:10;;;;;;;11.98;10.75;;;;;;;-0.55;100.00;100394.69;5388074;27;20072;-75
2022/04/01 04:16:08;;;;;;;12.25;10.90;;;;;;;-0.57;100.00;100403.47;5387555;27;20421;-75
2022/04/01 04:18:47;;;;;;;14.60;10.90;;;;;;;-0.55;100.00;100411.25;5367423;27;20050;-75
2022/04/01 04:21:29;;;;;;;12.70;11.30;;;;;;;-0.57;100.00;100407.88;5386597;27;20142;-75
2022/04/01 04:24:02;;;;;;;13.90;11.73;;;;;;;-0.59;100.00;100414.97;5387573;27;20104;-75
2022/04/01 04:26:38;;;;;;;14.57;11.18;;;;;;;-0.57;100.00;100415.75;5390216;27;20466;-75
2022/04/01 04:29:12;;;;;;;15.40;11.18;;;;;;;-0.55;100.00;100423.50;5379893;27;20043;-76
2022/04/01 04:32:02;;;;;;;12.40;11.02;;;;;;;-0.58;100.00;100422.75;5389579;27;20030;-75
2022/04/01 04:34:38;;;;;;;15.38;11.18;;;;;;;-0.58;100.00;100432.38;5390055;27;20030;-76
2022/04/01 04:37:12;;;;;;;13.73;10.52;;;;;;;-0.51;100.00;100436.34;5369630;27;20058;-75
2022/04/01 04:39:43;;;;;;;12.32;10.88;;;;;;;-0.64;100.00;100425.69;5388439;27;20034;-76
2022/04/01 04:42:16;;;;;;;13.95;10.30;;;;;;;-0.58;100.00;100443.72;5386359;27;20060;-76
2022/04/01 04:44:48;;;;;;;13.68;11.55;;;;;;;-0.61;100.00;100448.28;5365143;27;20390;-76
2022/04/01 04:47:25;;;;;;;11.80;10.35;;;;;;;-0.59;100.00;100456.91;5389546;27;20033;-76
2022/04/01 04:49:57;;;;;;;14.13;11.23;;;;;;;-0.62;100.00;100457.03;5388062;27;20042;-76
2022/04/01 04:52:34;;;;;;;14.10;11.68;;;;;;;-0.65;100.00;100455.44;5389610;27;20475;-75
2022/04/01 04:55:09;;;;;;;;;;;;;;;-0.60;100.00;100463.91;5385761;27;20051;-76
2022/04/01 04:57:42;;;;;;;14.30;11.80;;;;;;;-0.66;100.00;100466.84;5387785;27;19915;-76
2022/04/01 05:00:19;;;;;;;14.80;12.05;;;;;;;-0.65;100.00;100471.16;5388691;27;20038;-76
2022/04/01 05:03:24;;;;;;;16.85;12.07;;;;;;;-0.61;100.00;100491.03;5385662;27;20421;-75
2022/04/01 05:05:58;;;;;;;13.65;11.43;;;;;;;-0.62;100.00;100488.47;5386636;27;20188;-76
2022/04/01 05:08:40;;;;;;;13.32;11.45;;;;;;;-0.64;100.00;100490.34;5386603;27;20015;-75
2022/04/01 05:11:33;;;;;;;13.30;11.20;;;;;;;-0.65;100.00;100499.13;5371100;27;20030;-76
2022/04/01 05:14:23;;;;;;;12.40;9.88;;;;;;;-0.64;100.00;100506.91;5386096;27;20477;-76
2022/04/01 05:17:01;;;;;;;13.02;11.00;;;;;;;-0.68;100.00;100504.53;5388607;27;20058;-76
2022/04/01 05:19:36;;;;;;;14.30;11.02;;;;;;;-0.71;100.00;100516.00;5388948;27;20022;-76
2022/04/01 05:22:10;;;;;;;11.48;10.27;;;;;;;-0.65;100.00;100510.47;5388754;27;20485;-76
2022/04/01 05:24:50;;;;;;;11.82;10.25;;;;;;;-0.68;100.00;100508.00;5389542;27;20034;-76
2022/04/01 05:27:30;;;;;;;13.07;10.27;;;;;;;-0.67;100.00;100527.16;5366346;27;20038;-76
2022/04/01 05:30:18;;;;;;;11.20;9.77;;;;;;;-0.68;100.00;100525.50;5384594;27;20033;-76
2022/04/01 05:32:59;;;;;;;12.35;10.98;;;;;;;-0.69;100.00;100522.00;5384102;27;20035;-76
2022/04/01 05:35:35;;;;;;;12.02;10.45;;;;;;;-0.62;100.00;100526.00;5386293;27;20099;-75
2022/04/01 05:38:10;;;;;;;12.93;9.80;;;;;;;-0.67;100.00;100522.75;5356766;27;20034;-76
2022/04/01 05:40:41;;;;;;;12.32;10.02;;;;;;;-0.63;100.00;100532.19;5388653;27;20035;-76
2022/04/01 05:43:13;;;;;;;12.18;10.15;;;;;;;-0.64;100.00;100534.88;5387521;27;21037;-75
2022/04/01 05:45:46;;;;;;;12.48;9.45;;;;;;;-0.68;100.00;100549.06;5369660;27;20038;-76
2022/04/01 05:48:17;;;;;;;12.27;10.00;;;;;;;-0.66;100.00;100560.31;5388059;27;20503;-76
2022/04/01 05:50:52;;;;;;;11.93;9.65;;;;;;;-0.70;100.00;100550.88;5370119;27;20023;-75
2022/04/01 05:53:25;;;;;;;12.07;10.80;;;;;;;-0.65;100.00;100565.47;5387641;27;20473;-76
2022/04/01 05:55:56;;;;;;;10.82;9.40;;;;;;;-0.65;100.00;100564.59;5387709;27;20026;-75
2022/04/01 05:58:29;;;;;;;13.25;10.52;;;;;;;-0.67;100.00;100564.69;5387796;27;20035;-76
2022/04/01 06:01:21;;;;;;;10.65;9.63;;;;;;;-0.65;100.00;100575.09;5385804;27;20029;-76
2022/04/01 06:04:09;;;;;;;9.85;8.85;;;;;;;-0.67;100.00;100583.00;5382998;27;20130;-76
2022/04/01 06:06:43;;;;;;;11.13;9.63;;;;;;;-0.64;100.00;100571.56;5387562;27;20027;-76
2022/04/01 06:09:39;;;;;;;11.75;9.70;;;;;;;-0.65;100.00;100594.28;5368513;27;20027;-76
2022/04/01 06:12:23;;;;;;;11.32;9.60;;;;;;;-0.68;100.00;100610.16;5366016;27;20018;-76
2022/04/01 06:15:06;;;;;;;10.45;9.45;;;;;;;-0.67;100.00;100605.75;5387548;27;20086;-76
2022/04/01 06:17:49;;;;;;;11.32;8.65;;;;;;;-0.69;100.00;100618.09;5387118;27;20034;-76
2022/04/01 06:20:25;;;;;;;10.27;9.18;;;;;;;-0.71;100.00;100609.47;5387817;27;20102;-76
2022/04/01 06:23:12;;;;;;;11.57;8.75;;;;;;;-0.64;100.00;100626.56;5387217;27;20138;-76
2022/04/01 06:25:55;;;;;;;9.23;8.27;;;;;;;-0.70;100.00;100622.47;5388054;27;20125;-76
2022/04/01 06:28:30;;;;;;;9.90;8.82;;;;;;;-0.68;100.00;100622.41;5385202;27;20027;-76
2022/04/01 06:31:06;;;;;;;10.18;8.05;;;;;;;-0.67;100.00;100632.78;5386240;27;20027;-75
2022/04/01 06:33:59;;;;;;;11.10;8.85;;;;;;;-0.69;100.00;100631.19;5367693;27;20027;-76
2022/04/01 06:36:38;;;;;;;11.50;8.40;;;;;;;-0.67;100.00;100645.03;5387473;27;20355;-76
2022/04/01 06:39:10;;;;;;;8.50;7.55;;;;;;;-0.70;100.00;100635.59;5367399;27;20064;-76
2022/04/01 06:41:54;;;;;;;8.10;7.25;;;;;;;-0.69;100.00;100652.97;5368699;27;20023;-76
2022/04/01 06:44:26;;;;;;;9.65;7.70;;;;;;;-0.70;100.00;100651.31;5383226;27;20038;-76
2022/04/01 06:46:57;;;;;;;9.73;7.88;;;;;;;-0.70;100.00;100661.78;5364822;27;20451;-76
2022/04/01 06:49:28;;;;;;;9.82;7.78;;;;;;;-0.70;100.00;100674.88;5367266;27;20019;-76
2022/04/01 06:52:02;;;;;;;9.15;7.10;;;;;;;-0.72;100.00;100674.06;5346064;27;20456;-76
2022/04/01 06:54:34;;;;;;;8.52;7.60;;;;;;;-0.70;100.00;100661.78;5366636;27;20049;-76
2022/04/01 06:57:06;;;;;;;8.23;6.20;;;;;;;-0.69;100.00;100684.41;5368601;27;20030;-76
2022/04/01 06:59:37;;;;;;;7.22;6.18;;;;;;;-0.68;100.00;100673.03;5388154;27;20023;-76
2022/04/01 07:02:08;;;;;;;9.15;6.20;;;;;;;-0.66;100.00;100694.75;5366218;27;20020;-75
2022/04/01 07:04:39;;;;;;;8.70;6.25;;;;;;;-0.66;100.00;100688.66;5380598;27;20037;-76
2022/04/01 07:07:11;;;;;;;7.25;5.55;;;;;;;-0.64;100.00;100689.44;5387388;27;20030;-77
2022/04/01 07:09:43;;;;;;;7.07;5.70;;;;;;;-0.65;100.00;100685.13;5368740;27;20037;-76
2022/04/01 07:12:14;;;;;;;7.43;5.80;;;;;;;-0.67;100.00;100693.03;5388162;27;20025;-76
2022/04/01 07:14:45;;;;;;;8.43;6.88;;;;;;;-0.64;100.00;100697.31;5387441;27;20031;-76
2022/04/01 07:17:17;;;;;;;9.23;6.38;;;;;;;-0.65;100.00;100701.69;5370035;27;20023;-76
2022/04/01 07:19:48;;;;;;;8.13;6.07;;;;;;;-0.64;100.00;100695.53;5367914;27;20029;-76
2022/04/01 07:22:19;;;;;;;7.85;5.88;;;;;;;-0.56;100.00;100705.66;5385783;27;20439;-76
2022/04/01 07:24:50;;;;;;;8.32;5.78;;;;;;;-0.58;100.00;100707.47;5388430;27;20502;-76
2022/04/01 07:27:22;;;;;;;7.47;6.45;;;;;;;-0.59;100.00;100706.63;5390362;27;20027;-76
2022/04/01 07:29:53;;;;;;;7.10;6.38;;;;;;;-0.59;100.00;100717.09;5371325;27;20034;-76
2022/04/01 07:32:30;;;;;;;8.23;5.78;;;;;;;-0.54;100.00;100716.91;5391006;27;20041;-76
2022/04/01 07:35:08;;;;;;;7.60;6.22;;;;;;;-0.52;100.00;100724.69;5373059;27;20023;-76
2022/04/01 07:37:42;;;;;;;6.88;5.70;;;;;;;-0.50;100.00;100728.06;5392310;27;20451;-76
2022/04/01 07:40:13;;;;;;;7.82;5.72;;;;;;;-0.45;100.00;100729.53;5391893;27;20160;-76
2022/04/01 07:42:45;;;;;;;7.20;5.53;;;;;;;-0.48;100.00;100729.69;5390642;27;20209;-76
2022/04/01 07:45:17;;;;;;;9.00;5.60;;;;;;;-0.44;100.00;100738.25;5390190;27;20095;-76
2022/04/01 07:47:51;;;;;;;8.95;5.57;;;;;;;-0.41;100.00;100745.97;5391487;27;20051;-76
2022/04/01 07:50:22;;;;;;;9.02;5.22;;;;;;;-0.45;100.00;100745.25;5371724;27;20142;-76
2022/04/01 07:52:54;;;;;;;7.13;5.07;;;;;;;-0.44;100.00;100733.88;5390712;27;20150;-76
2022/04/01 07:55:25;;;;;;;7.32;5.32;;;;;;;-0.46;100.00;100746.19;5372075;27;20026;-76
2022/04/01 07:57:57;;;;;;;7.53;5.43;;;;;;;-0.39;100.00;100750.22;5371112;27;20109;-76
2022/04/01 08:00:28;;;;;;;9.50;5.10;;;;;;;-0.41;100.00;100748.59;5389487;27;20402;-75
2022/04/01 08:02:59;;;;;;;9.32;5.00;;;;;;;-0.39;100.00;100744.97;5369284;27;20109;-76
2022/04/01 08:05:31;;;;;;;8.82;5.35;;;;;;;-0.39;100.00;100762.47;5372299;27;20026;-75
2022/04/01 08:08:02;;;;;;;8.00;5.03;;;;;;;-0.38;100.00;100756.31;5371861;27;20474;-75
2022/04/01 08:10:33;;;;;;;6.72;4.97;;;;;;;-0.34;100.00;100762.25;5382651;27;20057;-76
2022/04/01 08:13:05;;;;;;;7.18;4.70;;;;;;;-0.32;100.00;100771.72;5379070;27;20019;-75
2022/04/01 08:15:36;;;;;;;6.25;4.65;;;;;;;-0.29;100.00;100773.38;5352752;27;20046;-76
2022/04/01 08:18:07;;;;;;;5.35;4.60;;;;;;;-0.26;100.00;100775.84;5383853;27;20022;-76
2022/04/01 08:20:39;;;;;;;6.20;5.00;;;;;;;-0.25;100.00;100778.34;5350773;27;20019;-76
2022/04/01 08:23:11;;;;;;;6.30;4.63;;;;;;;-0.23;100.00;100789.66;5369652;27;20395;-76
2022/04/01 08:25:42;;;;;;;6.05;4.38;;;;;;;-0.20;100.00;100786.84;5386895;27;20022;-76
2022/04/01 08:28:14;;;;;;;9.50;5.10;;;;;;;-0.17;100.00;100793.75;5390892;27;20371;-76
2022/04/01 08:30:46;;;;;;;5.72;4.60;;;;;;;-0.14;100.00;100798.84;5391430;27;20495;-76
2022/04/01 08:33:20;;;;;;;7.50;5.03;;;;;;;-0.10;100.00;100807.41;5372375;27;20019;-75
2022/04/01 08:35:51;;;;;;;6.35;4.25;;;;;;;-0.09;100.00;100802.09;5387953;27;20034;-75
2022/04/01 08:38:23;;;;;;;10.63;4.95;;;;;;;-0.07;100.00;100820.34;5368946;27;20019;-75
2022/04/01 08:40:54;;;;;;;5.75;4.72;;;;;;;-0.07;100.00;100812.47;5376121;27;20014;-75
2022/04/01 08:43:31;;;;;;;9.85;5.00;;;;;;;-0.04;100.00;100828.91;5389579;27;20058;-75
2022/04/01 08:46:08;;;;;;;5.35;4.43;;;;;;;-0.03;100.00;100827.16;5390872;27;20034;-75
2022/04/01 08:48:41;;;;;;;4.07;3.10;;;;;;;-0.05;100.00;100826.38;5390290;27;20038;-76
2022/04/01 08:51:13;;;;;;;7.72;3.67;;;;;;;-0.04;100.00;100828.91;5386489;27;20476;-75
2022/04/01 08:53:46;;;;;;;4.60;3.92;;;;;;;0.07;100.00;100835.41;5385079;27;20080;-76
2022/04/01 08:56:21;;;;;;;5.40;3.50;;;;;;;0.10;100.00;100838.72;5384734;27;20037;-74
2022/04/01 08:58:52;;;;;;;3.97;3.05;;;;;;;0.10;100.00;100841.34;5380802;27;37447;-76
2022/04/01 09:01:23;;;;;;;6.22;3.75;;;;;;;0.11;100.00;100840.44;5370728;27;20466;-76
2022/04/01 09:03:56;;;;;;;4.88;3.50;;;;;;;0.14;100.00;100844.66;5371806;27;20043;-76
2022/04/01 09:06:28;;;;;;;5.40;3.45;;;;;;;0.21;100.00;100842.59;5379564;27;20408;-76
2022/04/01 09:08:59;;;;;;;3.67;3.33;;;;;;;0.28;100.00;100849.22;5390118;27;20023;-75
2022/04/01 09:11:30;;;;;;;6.10;3.88;;;;;;;0.41;100.00;100849.50;5390999;27;20535;-76
2022/04/01 09:14:03;;;;;;;5.72;3.50;;;;;;;0.45;100.00;100857.13;5389940;27;20482;-76
2022/04/01 09:16:39;;;;;;;5.93;3.45;;;;;;;0.48;100.00;100862.22;5354363;27;20084;-76
2022/04/01 09:19:10;;;;;;;6.38;3.92;;;;;;;0.56;100.00;100867.06;5360088;27;20339;-76
2022/04/01 09:21:44;;;;;;;3.38;2.95;;;;;;;0.55;100.00;100862.75;5380948;27;20103;-75
2022/04/01 09:24:15;;;;;;;4.50;3.35;;;;;;;0.55;100.00;100866.22;5378911;27;20015;-75
2022/04/01 09:26:55;;;;;;;4.88;3.40;;;;;;;0.56;100.00;100869.69;5361113;27;20056;-76
2022/04/01 09:29:30;;;;;;;4.35;3.20;;;;;;;0.69;100.00;100868.16;5379083;27;20130;-75
2022/04/01 09:32:06;;;;;;;5.53;3.28;;;;;;;0.73;100.00;100876.72;5379188;27;20034;-76
2022/04/01 09:34:40;;;;;;;5.57;3.50;;;;;;;0.78;100.00;100873.88;5379841;27;20101;-76
2022/04/01 09:37:12;;;;;;;5.22;3.30;;;;;;;0.92;100.00;100871.38;5363138;27;20060;-76
2022/04/01 09:39:43;;;;;;;4.65;3.13;;;;;;;0.93;100.00;100875.72;5379455;27;20110;-76
2022/04/01 09:42:19;;;;;;;3.92;3.00;;;;;;;1.10;100.00;100883.53;5379542;27;20023;-76
2022/04/01 09:44:57;;;;;;;4.47;3.03;;;;;;;1.17;100.00;100877.97;5382223;27;20016;-76
2022/04/01 09:47:36;;;;;;;4.13;2.55;;;;;;;1.43;100.00;100880.03;5367726;27;20475;-76
2022/04/01 09:50:13;;;;;;;4.75;2.92;;;;;;;1.43;100.00;100884.47;5380336;27;20027;-76
2022/04/01 09:52:46;;;;;;;4.78;2.78;;;;;;;1.41;100.00;100879.28;5377370;27;20038;-76
2022/04/01 09:55:18;;;;;;;4.43;2.90;;;;;;;1.43;100.00;100874.78;5381505;27;20026;-76
2022/04/01 09:57:50;;;;;;;3.85;2.63;;;;;;;1.40;100.00;100879.38;5380187;27;20031;-76
2022/04/01 10:00:21;;;;;;;3.97;2.75;;;;;;;1.38;100.00;100875.97;5381276;27;20477;-76
2022/04/01 10:02:52;;;;;;;3.13;2.10;;;;;;;1.43;100.00;100887.09;5379353;27;20047;-76
2022/04/01 10:05:23;;;;;;;4.80;2.45;;;;;;;1.47;100.00;100886.00;5385530;27;20031;-76
2022/04/01 10:07:57;;;;;;;3.60;2.15;;;;;;;1.35;100.00;100886.66;5364886;27;20155;-76
2022/04/01 10:10:29;;;;;;;5.03;2.25;;;;;;;1.24;100.00;100889.84;5381045;27;20471;-76
2022/04/01 10:13:09;;;;;;;2.55;2.05;;;;;;;1.22;100.00;100897.81;5381175;27;20445;-76
2022/04/01 10:15:42;;;;;;;3.47;2.38;;;;;;;1.26;100.00;100885.34;5380737;27;20026;-76
2022/04/01 10:18:18;;;;;;;3.92;2.28;;;;;;;1.16;100.00;100885.00;5379014;27;20035;-76
2022/04/01 10:20:53;;;;;;;4.10;2.63;;;;;;;1.20;100.00;100896.22;5382170;27;20140;-76
2022/04/01 10:23:25;;;;;;;3.75;2.28;;;;;;;1.23;100.00;100902.16;5380231;27;20474;-76
2022/04/01 10:26:09;;;;;;;3.42;2.22;;;;;;;1.30;100.00;100892.16;5378533;27;20071;-76
2022/04/01 10:28:44;;;;;;;2.08;1.85;;;;;;;1.31;100.00;100893.84;5357897;27;20260;-76
2022/04/01 10:31:15;;;;;;;3.30;2.40;;;;;;;1.32;100.00;100898.19;5386643;27;20076;-76
2022/04/01 10:33:47;;;;;;;2.85;2.22;;;;;;;1.40;100.00;100897.75;5367542;27;20486;-76
2022/04/01 10:36:22;;;;;;;4.10;2.17;;;;;;;1.48;100.00;100892.94;5388706;27;20053;-76
2022/04/01 10:39:19;;;;;;;5.07;2.60;;;;;;;1.58;100.00;100896.78;5387337;27;20042;-77
2022/04/01 10:42:17;;;;;;;5.88;2.53;;;;;;;1.65;100.00;100905.19;5376690;27;20031;-76
2022/04/01 10:44:50;;;;;;;;;;;;;;;1.69;100.00;100899.66;5381590;27;20110;-76
2022/04/01 10:51:36;;;;;;;5.82;2.20;;;;;;;1.53;100.00;100901.44;5350688;27;20313;-77
2022/04/01 10:53:45;;;;;;;3.47;2.63;;;;;;;1.57;100.00;100895.06;5385382;27;20479;-77
2022/04/01 10:56:26;;;;;;;5.20;2.70;;;;;;;1.39;100.00;100911.84;5375475;27;20029;-76
2022/04/01 10:59:10;;;;;;;2.97;2.65;;;;;;;1.34;100.00;100906.84;5388546;27;20027;-76
2022/04/01 11:02:02;;;;;;;4.45;2.97;;;;;;;1.35;100.00;100918.19;5391703;27;20497;-76
2022/04/01 11:04:37;;;;;;;5.53;3.22;;;;;;;1.33;100.00;100923.53;5389674;27;20072;-76
2022/04/01 11:07:11;;;;;;;3.28;2.95;;;;;;;1.37;100.00;100916.31;5387989;27;20041;-76
2022/04/01 11:09:49;;;;;;;5.00;3.10;;;;;;;1.47;100.00;100925.41;5391723;27;20014;-76
2022/04/01 11:12:28;;;;;;;4.18;2.95;;;;;;;1.44;100.00;100928.22;5372507;27;20057;-76
2022/04/01 11:14:59;;;;;;;4.28;3.33;;;;;;;1.43;100.00;100927.38;5389612;27;20015;-76
2022/04/01 11:17:34;;;;;;;3.83;3.20;;;;;;;1.38;100.00;100926.75;5391710;27;20076;-76
2022/04/01 11:20:12;;;;;;;3.88;3.42;;;;;;;1.44;100.00;100920.34;5352579;27;20030;-75
2022/04/01 11:22:59;;;;;;;5.10;3.60;;;;;;;1.45;100.00;100929.91;5377759;27;20153;-75
2022/04/01 11:25:31;;;;;;;4.93;4.15;;;;;;;1.48;100.00;100935.00;5392922;27;20025;-77
2022/04/01 11:28:11;;;;;;;4.22;3.67;;;;;;;1.54;100.00;100931.19;5392364;27;20022;-76
2022/04/01 11:31:04;;;;;;;4.40;2.90;;;;;;;1.55;100.00;100932.91;5392394;27;20018;-76
2022/04/01 11:33:36;;;;;;;3.97;3.58;;;;;;;1.40;100.00;100932.78;5370647;27;20023;-76
2022/04/01 11:36:07;;;;;;;9.93;3.83;;;;;;;1.42;100.00;100941.47;5366084;27;20042;-76
2022/04/01 11:38:45;;;;;;;5.55;4.10;;;;;;;1.42;100.00;100943.22;5392711;27;20015;-76
2022/04/01 11:41:17;;;;;;;5.88;3.95;;;;;;;1.42;100.00;100945.84;5392474;27;20197;-76
2022/04/01 11:43:48;;;;;;;7.72;3.95;;;;;;;1.51;100.00;100948.00;5391773;27;20117;-77
2022/04/01 11:46:20;;;;;;;6.63;3.80;;;;;;;1.47;100.00;100944.69;5392700;27;20026;-77
2022/04/01 11:48:51;;;;;;;3.90;3.50;;;;;;;1.59;100.00;100937.91;5392184;27;20094;-76
2022/04/01 11:51:24;;;;;;;5.30;4.20;;;;;;;1.63;100.00;100944.72;5392457;27;20030;-76
2022/04/01 11:53:56;;;;;;;5.35;4.18;;;;;;;1.70;100.00;100934.69;5389426;27;20051;-76
2022/04/01 11:56:28;;;;;;;4.22;3.78;;;;;;;1.74;100.00;100946.75;5392414;27;20055;-76